sensor_id;sensor_type;location;lat;lon;timestamp;P1;durP1;ratioP1;P2;durP2;ratioP2
49488;SDS011;35382;51.484;11.476;2023-04-25T00:01:04;12.23;;;7.00;;
49488;SDS011;35382;51.484;11.476;2023-04-25T00:02:45;11.93;;;7.95;;
49488;SDS011;35382;51.484;11.476;2023-04-25T00:04:26;10.32;;;7.38;;
49488;SDS011;35382;51.484;11.476;2023-04-25T00:06:07;10.57;;;6.90;;
49488;SDS011;35382;51.484;11.476;2023-04-25T00:07:49;13.38;;;6.85;;
49488;SDS011;35382;51.484;11.476;2023-04-25T00:09:30;9.73;;;6.22;;
49488;SDS011;35382;51.484;11.476;2023-04-25T00:11:12;8.60;;;5.78;;
49488;SDS011;35382;51.484;11.476;2023-04-25T00:12:53;9.80;;;6.35;;
49488;SDS011;35382;51.484;11.476;2023-04-25T00:14:34;8.75;;;5.82;;
49488;SDS011;35382;51.484;11.476;2023-04-25T00:16:16;9.25;;;5.75;;
49488;SDS011;35382;51.484;11.476;2023-04-25T00:17:57;8.60;;;5.80;;
49488;SDS011;35382;51.484;11.476;2023-04-25T00:19:37;8.65;;;5.78;;
49488;SDS011;35382;51.484;11.476;2023-04-25T00:21:19;9.82;;;6.28;;
49488;SDS011;35382;51.484;11.476;2023-04-25T00:23:00;12.27;;;6.28;;
49488;SDS011;35382;51.484;11.476;2023-04-25T00:24:41;7.93;;;5.68;;
49488;SDS011;35382;51.484;11.476;2023-04-25T00:26:24;9.85;;;6.07;;
49488;SDS011;35382;51.484;11.476;2023-04-25T00:28:06;10.48;;;6.18;;
49488;SDS011;35382;51.484;11.476;2023-04-25T00:29:47;9.40;;;5.85;;
49488;SDS011;35382;51.484;11.476;2023-04-25T00:31:28;8.85;;;5.93;;
49488;SDS011;35382;51.484;11.476;2023-04-25T00:33:09;10.57;;;7.03;;
49488;SDS011;35382;51.484;11.476;2023-04-25T00:34:50;9.38;;;6.05;;
49488;SDS011;35382;51.484;11.476;2023-04-25T00:36:31;11.85;;;7.05;;
49488;SDS011;35382;51.484;11.476;2023-04-25T00:38:12;11.77;;;6.55;;
49488;SDS011;35382;51.484;11.476;2023-04-25T00:39:53;10.25;;;6.53;;
49488;SDS011;35382;51.484;11.476;2023-04-25T00:41:36;11.45;;;7.05;;
49488;SDS011;35382;51.484;11.476;2023-04-25T00:43:17;12.27;;;7.13;;
49488;SDS011;35382;51.484;11.476;2023-04-25T00:44:58;9.93;;;6.72;;
49488;SDS011;35382;51.484;11.476;2023-04-25T00:46:40;13.00;;;8.18;;
49488;SDS011;35382;51.484;11.476;2023-04-25T00:48:21;12.65;;;8.75;;
49488;SDS011;35382;51.484;11.476;2023-04-25T00:50:05;13.32;;;8.60;;
49488;SDS011;35382;51.484;11.476;2023-04-25T00:51:47;11.93;;;8.02;;
49488;SDS011;35382;51.484;11.476;2023-04-25T00:53:28;12.82;;;7.50;;
49488;SDS011;35382;51.484;11.476;2023-04-25T00:55:10;10.77;;;7.28;;
49488;SDS011;35382;51.484;11.476;2023-04-25T00:56:52;12.75;;;7.00;;
49488;SDS011;35382;51.484;11.476;2023-04-25T00:58:33;12.40;;;7.10;;
49488;SDS011;35382;51.484;11.476;2023-04-25T01:00:16;11.77;;;7.88;;
49488;SDS011;35382;51.484;11.476;2023-04-25T01:01:58;11.60;;;7.72;;
49488;SDS011;35382;51.484;11.476;2023-04-25T01:03:39;15.05;;;8.10;;
49488;SDS011;35382;51.484;11.476;2023-04-25T01:05:21;11.15;;;7.25;;
49488;SDS011;35382;51.484;11.476;2023-04-25T01:07:02;14.55;;;7.35;;
49488;SDS011;35382;51.484;11.476;2023-04-25T01:08:43;11.32;;;7.25;;
49488;SDS011;35382;51.484;11.476;2023-04-25T01:10:24;11.40;;;7.47;;
49488;SDS011;35382;51.484;11.476;2023-04-25T01:12:05;12.13;;;7.38;;
49488;SDS011;35382;51.484;11.476;2023-04-25T01:13:46;9.57;;;6.00;;
49488;SDS011;35382;51.484;11.476;2023-04-25T01:15:27;10.77;;;6.43;;
49488;SDS011;35382;51.484;11.476;2023-04-25T01:17:09;12.13;;;7.63;;
49488;SDS011;35382;51.484;11.476;2023-04-25T01:18:50;12.10;;;6.30;;
49488;SDS011;35382;51.484;11.476;2023-04-25T01:20:32;11.43;;;5.90;;
49488;SDS011;35382;51.484;11.476;2023-04-25T01:22:14;12.15;;;6.60;;
49488;SDS011;35382;51.484;11.476;2023-04-25T01:23:55;10.90;;;5.90;;
49488;SDS011;35382;51.484;11.476;2023-04-25T01:25:36;10.77;;;5.65;;
49488;SDS011;35382;51.484;11.476;2023-04-25T01:27:18;11.93;;;5.78;;
49488;SDS011;35382;51.484;11.476;2023-04-25T01:28:59;14.18;;;6.25;;
49488;SDS011;35382;51.484;11.476;2023-04-25T01:30:40;11.57;;;6.00;;
49488;SDS011;35382;51.484;11.476;2023-04-25T01:32:22;9.93;;;5.50;;
49488;SDS011;35382;51.484;11.476;2023-04-25T01:34:04;12.00;;;5.85;;
49488;SDS011;35382;51.484;11.476;2023-04-25T01:35:45;11.60;;;5.78;;
49488;SDS011;35382;51.484;11.476;2023-04-25T01:37:27;10.43;;;5.28;;
49488;SDS011;35382;51.484;11.476;2023-04-25T01:39:08;11.45;;;5.75;;
49488;SDS011;35382;51.484;11.476;2023-04-25T01:40:50;10.73;;;5.85;;
49488;SDS011;35382;51.484;11.476;2023-04-25T01:42:34;11.38;;;5.68;;
49488;SDS011;35382;51.484;11.476;2023-04-25T01:44:16;10.75;;;5.43;;
49488;SDS011;35382;51.484;11.476;2023-04-25T01:45:57;12.70;;;5.78;;
49488;SDS011;35382;51.484;11.476;2023-04-25T01:47:39;11.38;;;5.70;;
49488;SDS011;35382;51.484;11.476;2023-04-25T01:49:20;10.85;;;5.30;;
49488;SDS011;35382;51.484;11.476;2023-04-25T01:51:01;15.35;;;5.65;;
49488;SDS011;35382;51.484;11.476;2023-04-25T01:52:44;13.98;;;5.30;;
49488;SDS011;35382;51.484;11.476;2023-04-25T01:54:26;10.15;;;5.15;;
49488;SDS011;35382;51.484;11.476;2023-04-25T01:56:07;12.02;;;5.50;;
49488;SDS011;35382;51.484;11.476;2023-04-25T01:57:49;13.73;;;5.53;;
49488;SDS011;35382;51.484;11.476;2023-04-25T01:59:32;12.40;;;4.90;;
49488;SDS011;35382;51.484;11.476;2023-04-25T02:01:20;13.32;;;5.57;;
49488;SDS011;35382;51.484;11.476;2023-04-25T02:03:14;11.23;;;4.88;;
49488;SDS011;35382;51.484;11.476;2023-04-25T02:04:55;9.32;;;5.45;;
49488;SDS011;35382;51.484;11.476;2023-04-25T02:06:38;12.48;;;5.47;;
49488;SDS011;35382;51.484;11.476;2023-04-25T02:08:20;11.30;;;5.30;;
49488;SDS011;35382;51.484;11.476;2023-04-25T02:10:02;10.95;;;5.45;;
49488;SDS011;35382;51.484;11.476;2023-04-25T02:11:47;10.43;;;5.18;;
49488;SDS011;35382;51.484;11.476;2023-04-25T02:13:51;11.68;;;6.03;;
49488;SDS011;35382;51.484;11.476;2023-04-25T02:15:52;11.40;;;6.03;;
49488;SDS011;35382;51.484;11.476;2023-04-25T02:17:34;11.48;;;5.22;;
49488;SDS011;35382;51.484;11.476;2023-04-25T02:19:15;11.48;;;5.97;;
49488;SDS011;35382;51.484;11.476;2023-04-25T02:20:56;12.05;;;5.80;;
49488;SDS011;35382;51.484;11.476;2023-04-25T02:22:38;11.73;;;5.80;;
49488;SDS011;35382;51.484;11.476;2023-04-25T02:24:20;11.55;;;6.07;;
49488;SDS011;35382;51.484;11.476;2023-04-25T02:26:01;9.75;;;5.22;;
49488;SDS011;35382;51.484;11.476;2023-04-25T02:27:42;12.43;;;5.70;;
49488;SDS011;35382;51.484;11.476;2023-04-25T02:29:24;12.60;;;6.25;;
49488;SDS011;35382;51.484;11.476;2023-04-25T02:31:05;16.13;;;6.53;;
49488;SDS011;35382;51.484;11.476;2023-04-25T02:32:46;15.50;;;6.05;;
49488;SDS011;35382;51.484;11.476;2023-04-25T02:34:27;14.63;;;5.57;;
49488;SDS011;35382;51.484;11.476;2023-04-25T02:36:08;14.18;;;6.82;;
49488;SDS011;35382;51.484;11.476;2023-04-25T02:37:49;13.65;;;6.22;;
49488;SDS011;35382;51.484;11.476;2023-04-25T02:39:30;15.20;;;6.32;;
49488;SDS011;35382;51.484;11.476;2023-04-25T02:41:11;12.35;;;5.68;;
49488;SDS011;35382;51.484;11.476;2023-04-25T02:42:52;15.98;;;6.22;;
49488;SDS011;35382;51.484;11.476;2023-04-25T02:44:33;17.65;;;6.32;;
49488;SDS011;35382;51.484;11.476;2023-04-25T02:46:14;18.35;;;6.72;;
49488;SDS011;35382;51.484;11.476;2023-04-25T02:47:55;13.48;;;6.15;;
49488;SDS011;35382;51.484;11.476;2023-04-25T02:49:36;16.02;;;5.75;;
49488;SDS011;35382;51.484;11.476;2023-04-25T02:51:17;11.90;;;6.32;;
49488;SDS011;35382;51.484;11.476;2023-04-25T02:52:58;12.80;;;6.07;;
49488;SDS011;35382;51.484;11.476;2023-04-25T02:54:44;17.35;;;6.40;;
49488;SDS011;35382;51.484;11.476;2023-04-25T02:56:25;12.77;;;5.43;;
49488;SDS011;35382;51.484;11.476;2023-04-25T02:58:06;11.35;;;5.60;;
49488;SDS011;35382;51.484;11.476;2023-04-25T02:59:57;15.90;;;6.25;;
49488;SDS011;35382;51.484;11.476;2023-04-25T03:01:38;16.58;;;5.85;;
49488;SDS011;35382;51.484;11.476;2023-04-25T03:03:19;15.65;;;6.18;;
49488;SDS011;35382;51.484;11.476;2023-04-25T03:05:03;11.88;;;6.68;;
49488;SDS011;35382;51.484;11.476;2023-04-25T03:06:44;12.73;;;5.80;;
49488;SDS011;35382;51.484;11.476;2023-04-25T03:08:25;14.18;;;6.47;;
49488;SDS011;35382;51.484;11.476;2023-04-25T03:10:10;13.38;;;6.65;;
49488;SDS011;35382;51.484;11.476;2023-04-25T03:11:51;14.60;;;6.00;;
49488;SDS011;35382;51.484;11.476;2023-04-25T03:13:33;14.52;;;6.68;;
49488;SDS011;35382;51.484;11.476;2023-04-25T03:15:14;19.23;;;7.47;;
49488;SDS011;35382;51.484;11.476;2023-04-25T03:16:57;17.73;;;6.80;;
49488;SDS011;35382;51.484;11.476;2023-04-25T03:18:38;15.00;;;6.60;;
49488;SDS011;35382;51.484;11.476;2023-04-25T03:20:19;13.90;;;6.53;;
49488;SDS011;35382;51.484;11.476;2023-04-25T03:21:59;14.52;;;7.10;;
49488;SDS011;35382;51.484;11.476;2023-04-25T03:23:41;19.15;;;6.97;;
49488;SDS011;35382;51.484;11.476;2023-04-25T03:25:22;15.55;;;6.78;;
49488;SDS011;35382;51.484;11.476;2023-04-25T03:27:03;12.82;;;6.45;;
49488;SDS011;35382;51.484;11.476;2023-04-25T03:28:44;15.05;;;6.85;;
49488;SDS011;35382;51.484;11.476;2023-04-25T03:30:26;20.05;;;7.50;;
49488;SDS011;35382;51.484;11.476;2023-04-25T03:32:07;16.88;;;7.45;;
49488;SDS011;35382;51.484;11.476;2023-04-25T03:33:48;17.17;;;7.63;;
49488;SDS011;35382;51.484;11.476;2023-04-25T03:35:29;14.25;;;7.30;;
49488;SDS011;35382;51.484;11.476;2023-04-25T03:37:10;15.85;;;7.85;;
49488;SDS011;35382;51.484;11.476;2023-04-25T03:38:52;17.13;;;7.57;;
49488;SDS011;35382;51.484;11.476;2023-04-25T03:40:35;15.85;;;8.30;;
49488;SDS011;35382;51.484;11.476;2023-04-25T03:42:31;15.45;;;7.75;;
49488;SDS011;35382;51.484;11.476;2023-04-25T03:44:13;18.73;;;8.18;;
49488;SDS011;35382;51.484;11.476;2023-04-25T03:45:54;16.10;;;7.82;;
49488;SDS011;35382;51.484;11.476;2023-04-25T03:47:37;14.68;;;7.65;;
49488;SDS011;35382;51.484;11.476;2023-04-25T03:49:18;18.42;;;8.43;;
49488;SDS011;35382;51.484;11.476;2023-04-25T03:51:10;17.40;;;7.75;;
49488;SDS011;35382;51.484;11.476;2023-04-25T03:52:55;15.88;;;8.27;;
49488;SDS011;35382;51.484;11.476;2023-04-25T03:54:38;18.23;;;8.48;;
49488;SDS011;35382;51.484;11.476;2023-04-25T03:56:29;15.90;;;8.68;;
49488;SDS011;35382;51.484;11.476;2023-04-25T03:58:17;18.83;;;9.15;;
49488;SDS011;35382;51.484;11.476;2023-04-25T03:59:58;17.90;;;9.50;;
49488;SDS011;35382;51.484;11.476;2023-04-25T04:01:39;20.67;;;9.02;;
49488;SDS011;35382;51.484;11.476;2023-04-25T04:03:20;18.20;;;9.00;;
49488;SDS011;35382;51.484;11.476;2023-04-25T04:05:01;21.70;;;8.90;;
49488;SDS011;35382;51.484;11.476;2023-04-25T04:06:44;20.63;;;9.60;;
49488;SDS011;35382;51.484;11.476;2023-04-25T04:08:31;18.50;;;9.55;;
49488;SDS011;35382;51.484;11.476;2023-04-25T04:10:12;18.98;;;9.07;;
49488;SDS011;35382;51.484;11.476;2023-04-25T04:11:54;16.83;;;8.85;;
49488;SDS011;35382;51.484;11.476;2023-04-25T04:13:35;22.02;;;9.25;;
49488;SDS011;35382;51.484;11.476;2023-04-25T04:15:17;17.38;;;8.93;;
49488;SDS011;35382;51.484;11.476;2023-04-25T04:16:59;19.70;;;9.50;;
49488;SDS011;35382;51.484;11.476;2023-04-25T04:18:42;17.98;;;9.68;;
49488;SDS011;35382;51.484;11.476;2023-04-25T04:20:23;20.23;;;9.73;;
49488;SDS011;35382;51.484;11.476;2023-04-25T04:22:06;19.95;;;9.80;;
49488;SDS011;35382;51.484;11.476;2023-04-25T04:23:49;20.00;;;9.48;;
49488;SDS011;35382;51.484;11.476;2023-04-25T04:25:30;23.85;;;10.32;;
49488;SDS011;35382;51.484;11.476;2023-04-25T04:27:30;20.42;;;10.00;;
49488;SDS011;35382;51.484;11.476;2023-04-25T04:29:28;23.20;;;10.48;;
49488;SDS011;35382;51.484;11.476;2023-04-25T04:31:14;21.45;;;10.02;;
49488;SDS011;35382;51.484;11.476;2023-04-25T04:32:56;19.52;;;9.73;;
49488;SDS011;35382;51.484;11.476;2023-04-25T04:34:37;22.00;;;10.15;;
49488;SDS011;35382;51.484;11.476;2023-04-25T04:36:20;19.10;;;10.10;;
49488;SDS011;35382;51.484;11.476;2023-04-25T04:38:03;18.05;;;9.48;;
49488;SDS011;35382;51.484;11.476;2023-04-25T04:39:48;16.83;;;9.30;;
49488;SDS011;35382;51.484;11.476;2023-04-25T04:41:47;18.73;;;10.18;;
49488;SDS011;35382;51.484;11.476;2023-04-25T04:43:44;19.20;;;10.68;;
49488;SDS011;35382;51.484;11.476;2023-04-25T04:45:38;18.17;;;9.25;;
49488;SDS011;35382;51.484;11.476;2023-04-25T04:47:44;19.98;;;9.43;;
49488;SDS011;35382;51.484;11.476;2023-04-25T04:49:49;17.95;;;9.32;;
49488;SDS011;35382;51.484;11.476;2023-04-25T04:51:37;17.10;;;8.75;;
49488;SDS011;35382;51.484;11.476;2023-04-25T04:53:29;15.35;;;8.60;;
49488;SDS011;35382;51.484;11.476;2023-04-25T04:55:30;18.55;;;9.63;;
49488;SDS011;35382;51.484;11.476;2023-04-25T04:57:31;25.33;;;9.43;;
49488;SDS011;35382;51.484;11.476;2023-04-25T04:59:29;18.88;;;10.35;;
49488;SDS011;35382;51.484;11.476;2023-04-25T05:01:22;20.35;;;10.23;;
49488;SDS011;35382;51.484;11.476;2023-04-25T05:03:12;19.42;;;9.93;;
49488;SDS011;35382;51.484;11.476;2023-04-25T05:05:23;19.60;;;10.27;;
49488;SDS011;35382;51.484;11.476;2023-04-25T05:07:22;17.50;;;9.88;;
49488;SDS011;35382;51.484;11.476;2023-04-25T05:09:39;17.70;;;9.43;;
49488;SDS011;35382;51.484;11.476;2023-04-25T05:11:26;18.15;;;9.30;;
49488;SDS011;35382;51.484;11.476;2023-04-25T05:13:18;20.35;;;10.35;;
49488;SDS011;35382;51.484;11.476;2023-04-25T05:15:15;17.30;;;9.82;;
49488;SDS011;35382;51.484;11.476;2023-04-25T05:17:15;19.75;;;10.20;;
49488;SDS011;35382;51.484;11.476;2023-04-25T05:19:12;19.05;;;10.57;;
49488;SDS011;35382;51.484;11.476;2023-04-25T05:21:19;19.65;;;9.88;;
49488;SDS011;35382;51.484;11.476;2023-04-25T05:23:18;22.73;;;10.63;;
49488;SDS011;35382;51.484;11.476;2023-04-25T05:25:22;19.88;;;10.02;;
49488;SDS011;35382;51.484;11.476;2023-04-25T05:27:28;21.80;;;10.77;;
49488;SDS011;35382;51.484;11.476;2023-04-25T05:29:32;16.52;;;9.98;;
49488;SDS011;35382;51.484;11.476;2023-04-25T05:31:25;16.50;;;9.50;;
49488;SDS011;35382;51.484;11.476;2023-04-25T05:33:13;18.40;;;10.32;;
49488;SDS011;35382;51.484;11.476;2023-04-25T05:34:54;18.58;;;10.10;;
49488;SDS011;35382;51.484;11.476;2023-04-25T05:36:41;18.40;;;9.80;;
49488;SDS011;35382;51.484;11.476;2023-04-25T05:38:22;18.58;;;10.32;;
49488;SDS011;35382;51.484;11.476;2023-04-25T05:40:22;21.00;;;11.25;;
49488;SDS011;35382;51.484;11.476;2023-04-25T05:42:17;19.05;;;10.63;;
49488;SDS011;35382;51.484;11.476;2023-04-25T05:44:07;21.05;;;10.23;;
49488;SDS011;35382;51.484;11.476;2023-04-25T05:45:54;23.15;;;10.68;;
49488;SDS011;35382;51.484;11.476;2023-04-25T05:47:50;21.00;;;11.30;;
49488;SDS011;35382;51.484;11.476;2023-04-25T05:49:50;18.98;;;9.75;;
49488;SDS011;35382;51.484;11.476;2023-04-25T05:51:42;21.80;;;10.43;;
49488;SDS011;35382;51.484;11.476;2023-04-25T05:53:55;22.05;;;11.23;;
49488;SDS011;35382;51.484;11.476;2023-04-25T05:55:36;20.73;;;11.30;;
49488;SDS011;35382;51.484;11.476;2023-04-25T05:57:31;23.25;;;11.55;;
49488;SDS011;35382;51.484;11.476;2023-04-25T05:59:13;19.42;;;10.88;;
49488;SDS011;35382;51.484;11.476;2023-04-25T06:00:53;20.98;;;11.63;;
49488;SDS011;35382;51.484;11.476;2023-04-25T06:02:35;22.73;;;12.07;;
49488;SDS011;35382;51.484;11.476;2023-04-25T06:04:16;23.17;;;11.18;;
49488;SDS011;35382;51.484;11.476;2023-04-25T06:05:57;21.30;;;11.43;;
49488;SDS011;35382;51.484;11.476;2023-04-25T06:07:38;22.42;;;12.23;;
49488;SDS011;35382;51.484;11.476;2023-04-25T06:09:19;19.92;;;10.80;;
49488;SDS011;35382;51.484;11.476;2023-04-25T06:10:59;23.00;;;11.93;;
49488;SDS011;35382;51.484;11.476;2023-04-25T06:12:40;19.63;;;12.05;;
49488;SDS011;35382;51.484;11.476;2023-04-25T06:14:22;20.73;;;10.80;;
49488;SDS011;35382;51.484;11.476;2023-04-25T06:16:04;21.50;;;11.65;;
49488;SDS011;35382;51.484;11.476;2023-04-25T06:17:46;21.13;;;11.43;;
49488;SDS011;35382;51.484;11.476;2023-04-25T06:19:26;20.45;;;11.40;;
49488;SDS011;35382;51.484;11.476;2023-04-25T06:21:07;19.13;;;11.70;;
49488;SDS011;35382;51.484;11.476;2023-04-25T06:22:49;21.25;;;12.05;;
49488;SDS011;35382;51.484;11.476;2023-04-25T06:24:30;22.33;;;12.23;;
49488;SDS011;35382;51.484;11.476;2023-04-25T06:26:11;17.20;;;10.20;;
49488;SDS011;35382;51.484;11.476;2023-04-25T06:27:55;15.98;;;10.88;;
49488;SDS011;35382;51.484;11.476;2023-04-25T06:29:37;20.20;;;10.82;;
49488;SDS011;35382;51.484;11.476;2023-04-25T06:31:18;23.85;;;12.27;;
49488;SDS011;35382;51.484;11.476;2023-04-25T06:33:00;21.67;;;11.73;;
49488;SDS011;35382;51.484;11.476;2023-04-25T06:34:43;21.17;;;11.48;;
49488;SDS011;35382;51.484;11.476;2023-04-25T06:36:24;19.05;;;11.55;;
49488;SDS011;35382;51.484;11.476;2023-04-25T06:38:09;16.38;;;11.30;;
49488;SDS011;35382;51.484;11.476;2023-04-25T06:39:52;20.88;;;11.70;;
49488;SDS011;35382;51.484;11.476;2023-04-25T06:41:33;18.65;;;11.10;;
49488;SDS011;35382;51.484;11.476;2023-04-25T06:43:16;19.95;;;11.93;;
49488;SDS011;35382;51.484;11.476;2023-04-25T06:45:09;15.90;;;9.82;;
49488;SDS011;35382;51.484;11.476;2023-04-25T06:46:50;18.95;;;10.82;;
49488;SDS011;35382;51.484;11.476;2023-04-25T06:48:31;17.08;;;10.48;;
49488;SDS011;35382;51.484;11.476;2023-04-25T06:50:13;17.23;;;10.18;;
49488;SDS011;35382;51.484;11.476;2023-04-25T06:51:54;18.00;;;11.38;;
49488;SDS011;35382;51.484;11.476;2023-04-25T06:53:35;19.80;;;10.82;;
49488;SDS011;35382;51.484;11.476;2023-04-25T06:55:19;17.60;;;10.43;;
49488;SDS011;35382;51.484;11.476;2023-04-25T06:57:13;10.40;;;4.20;;
49488;SDS011;35382;51.484;11.476;2023-04-25T06:58:55;6.45;;;3.22;;
49488;SDS011;35382;51.484;11.476;2023-04-25T07:00:44;6.63;;;2.83;;
49488;SDS011;35382;51.484;11.476;2023-04-25T07:02:25;6.40;;;3.35;;
49488;SDS011;35382;51.484;11.476;2023-04-25T07:04:08;10.75;;;3.72;;
49488;SDS011;35382;51.484;11.476;2023-04-25T07:05:53;9.00;;;3.25;;
49488;SDS011;35382;51.484;11.476;2023-04-25T07:07:33;8.75;;;3.50;;
49488;SDS011;35382;51.484;11.476;2023-04-25T07:09:14;8.93;;;3.38;;
49488;SDS011;35382;51.484;11.476;2023-04-25T07:10:59;10.30;;;3.60;;
49488;SDS011;35382;51.484;11.476;2023-04-25T07:12:40;9.75;;;3.83;;
49488;SDS011;35382;51.484;11.476;2023-04-25T07:14:22;7.43;;;3.67;;
49488;SDS011;35382;51.484;11.476;2023-04-25T07:16:03;9.88;;;3.80;;
49488;SDS011;35382;51.484;11.476;2023-04-25T07:17:45;10.57;;;3.92;;
49488;SDS011;35382;51.484;11.476;2023-04-25T07:19:26;9.25;;;3.85;;
49488;SDS011;35382;51.484;11.476;2023-04-25T07:21:11;8.98;;;4.03;;
49488;SDS011;35382;51.484;11.476;2023-04-25T07:22:53;15.25;;;4.50;;
49488;SDS011;35382;51.484;11.476;2023-04-25T07:24:34;11.82;;;4.50;;
49488;SDS011;35382;51.484;11.476;2023-04-25T07:26:15;13.80;;;6.00;;
49488;SDS011;35382;51.484;11.476;2023-04-25T07:28:16;13.45;;;5.32;;
49488;SDS011;35382;51.484;11.476;2023-04-25T07:29:57;13.45;;;4.40;;
49488;SDS011;35382;51.484;11.476;2023-04-25T07:31:38;14.55;;;5.00;;
49488;SDS011;35382;51.484;11.476;2023-04-25T07:33:19;11.07;;;5.55;;
49488;SDS011;35382;51.484;11.476;2023-04-25T07:35:01;13.65;;;4.60;;
49488;SDS011;35382;51.484;11.476;2023-04-25T07:36:43;13.10;;;4.40;;
49488;SDS011;35382;51.484;11.476;2023-04-25T07:38:25;12.38;;;4.10;;
49488;SDS011;35382;51.484;11.476;2023-04-25T07:40:07;9.48;;;3.47;;
49488;SDS011;35382;51.484;11.476;2023-04-25T07:41:50;10.98;;;4.10;;
49488;SDS011;35382;51.484;11.476;2023-04-25T07:43:37;10.67;;;3.83;;
49488;SDS011;35382;51.484;11.476;2023-04-25T07:45:19;11.65;;;3.83;;
49488;SDS011;35382;51.484;11.476;2023-04-25T07:47:00;11.85;;;3.83;;
49488;SDS011;35382;51.484;11.476;2023-04-25T07:48:41;12.75;;;4.53;;
49488;SDS011;35382;51.484;11.476;2023-04-25T07:50:22;13.88;;;4.22;;
49488;SDS011;35382;51.484;11.476;2023-04-25T07:52:03;12.05;;;4.45;;
49488;SDS011;35382;51.484;11.476;2023-04-25T07:53:47;16.02;;;4.85;;
49488;SDS011;35382;51.484;11.476;2023-04-25T07:55:30;12.05;;;4.25;;
49488;SDS011;35382;51.484;11.476;2023-04-25T07:57:17;12.75;;;4.28;;
49488;SDS011;35382;51.484;11.476;2023-04-25T07:59:00;10.75;;;4.38;;
49488;SDS011;35382;51.484;11.476;2023-04-25T08:00:41;11.13;;;4.00;;
49488;SDS011;35382;51.484;11.476;2023-04-25T08:02:53;10.38;;;4.55;;
49488;SDS011;35382;51.484;11.476;2023-04-25T08:04:35;14.18;;;4.18;;
49488;SDS011;35382;51.484;11.476;2023-04-25T08:06:18;18.10;;;6.15;;
49488;SDS011;35382;51.484;11.476;2023-04-25T08:08:09;10.93;;;4.10;;
49488;SDS011;35382;51.484;11.476;2023-04-25T08:09:50;10.40;;;4.38;;
49488;SDS011;35382;51.484;11.476;2023-04-25T08:11:40;11.98;;;4.10;;
49488;SDS011;35382;51.484;11.476;2023-04-25T08:13:24;11.02;;;3.65;;
49488;SDS011;35382;51.484;11.476;2023-04-25T08:15:07;9.85;;;4.05;;
49488;SDS011;35382;51.484;11.476;2023-04-25T08:16:52;12.35;;;3.60;;
49488;SDS011;35382;51.484;11.476;2023-04-25T08:18:34;10.93;;;4.07;;
49488;SDS011;35382;51.484;11.476;2023-04-25T08:20:15;10.35;;;3.70;;
49488;SDS011;35382;51.484;11.476;2023-04-25T08:21:57;10.38;;;3.80;;
49488;SDS011;35382;51.484;11.476;2023-04-25T08:23:45;13.18;;;3.90;;
49488;SDS011;35382;51.484;11.476;2023-04-25T08:25:29;15.40;;;4.32;;
49488;SDS011;35382;51.484;11.476;2023-04-25T08:27:10;10.98;;;3.60;;
49488;SDS011;35382;51.484;11.476;2023-04-25T08:28:52;11.05;;;4.38;;
49488;SDS011;35382;51.484;11.476;2023-04-25T08:30:33;13.45;;;4.30;;
49488;SDS011;35382;51.484;11.476;2023-04-25T08:32:14;13.25;;;4.43;;
49488;SDS011;35382;51.484;11.476;2023-04-25T08:34:05;11.68;;;4.15;;
49488;SDS011;35382;51.484;11.476;2023-04-25T08:36:00;11.60;;;3.50;;
49488;SDS011;35382;51.484;11.476;2023-04-25T08:37:42;11.82;;;4.82;;
49488;SDS011;35382;51.484;11.476;2023-04-25T08:39:26;10.80;;;4.18;;
49488;SDS011;35382;51.484;11.476;2023-04-25T08:41:33;8.85;;;3.83;;
49488;SDS011;35382;51.484;11.476;2023-04-25T08:43:17;12.73;;;4.38;;
49488;SDS011;35382;51.484;11.476;2023-04-25T08:45:00;16.98;;;5.30;;
49488;SDS011;35382;51.484;11.476;2023-04-25T08:46:47;12.77;;;4.32;;
49488;SDS011;35382;51.484;11.476;2023-04-25T08:48:41;13.93;;;4.28;;
49488;SDS011;35382;51.484;11.476;2023-04-25T08:50:23;14.07;;;3.80;;
49488;SDS011;35382;51.484;11.476;2023-04-25T08:52:06;11.68;;;4.05;;
49488;SDS011;35382;51.484;11.476;2023-04-25T08:53:51;13.85;;;4.13;;
49488;SDS011;35382;51.484;11.476;2023-04-25T08:55:34;13.55;;;3.63;;
49488;SDS011;35382;51.484;11.476;2023-04-25T08:57:18;10.95;;;3.97;;
49488;SDS011;35382;51.484;11.476;2023-04-25T08:59:02;15.95;;;4.25;;
49488;SDS011;35382;51.484;11.476;2023-04-25T09:00:43;11.82;;;3.65;;
49488;SDS011;35382;51.484;11.476;2023-04-25T09:02:30;11.00;;;3.67;;
49488;SDS011;35382;51.484;11.476;2023-04-25T09:04:12;11.15;;;3.72;;
49488;SDS011;35382;51.484;11.476;2023-04-25T09:05:54;14.02;;;3.30;;
49488;SDS011;35382;51.484;11.476;2023-04-25T09:07:36;13.60;;;3.83;;
49488;SDS011;35382;51.484;11.476;2023-04-25T09:09:18;17.35;;;4.15;;
49488;SDS011;35382;51.484;11.476;2023-04-25T09:10:59;14.45;;;6.65;;
49488;SDS011;35382;51.484;11.476;2023-04-25T09:12:40;11.95;;;3.60;;
49488;SDS011;35382;51.484;11.476;2023-04-25T09:14:23;14.40;;;3.35;;
49488;SDS011;35382;51.484;11.476;2023-04-25T09:16:32;10.00;;;3.28;;
49488;SDS011;35382;51.484;11.476;2023-04-25T09:18:46;10.52;;;2.80;;
49488;SDS011;35382;51.484;11.476;2023-04-25T09:20:28;11.90;;;3.58;;
49488;SDS011;35382;51.484;11.476;2023-04-25T09:22:09;10.35;;;3.22;;
49488;SDS011;35382;51.484;11.476;2023-04-25T09:23:51;9.95;;;2.97;;
49488;SDS011;35382;51.484;11.476;2023-04-25T09:25:36;12.05;;;2.80;;
49488;SDS011;35382;51.484;11.476;2023-04-25T09:27:21;14.85;;;3.45;;
49488;SDS011;35382;51.484;11.476;2023-04-25T09:29:08;12.20;;;2.50;;
49488;SDS011;35382;51.484;11.476;2023-04-25T09:30:54;8.52;;;2.85;;
49488;SDS011;35382;51.484;11.476;2023-04-25T09:33:07;10.73;;;3.55;;
49488;SDS011;35382;51.484;11.476;2023-04-25T09:34:52;7.00;;;2.58;;
49488;SDS011;35382;51.484;11.476;2023-04-25T09:36:35;11.20;;;2.60;;
49488;SDS011;35382;51.484;11.476;2023-04-25T09:38:43;8.70;;;2.92;;
49488;SDS011;35382;51.484;11.476;2023-04-25T09:40:42;11.05;;;2.63;;
49488;SDS011;35382;51.484;11.476;2023-04-25T09:42:33;9.77;;;2.33;;
49488;SDS011;35382;51.484;11.476;2023-04-25T09:44:23;12.68;;;3.00;;
49488;SDS011;35382;51.484;11.476;2023-04-25T09:46:08;10.87;;;4.13;;
49488;SDS011;35382;51.484;11.476;2023-04-25T09:47:56;9.90;;;2.78;;
49488;SDS011;35382;51.484;11.476;2023-04-25T09:49:42;10.98;;;2.25;;
49488;SDS011;35382;51.484;11.476;2023-04-25T09:51:26;11.48;;;2.80;;
49488;SDS011;35382;51.484;11.476;2023-04-25T09:53:08;8.35;;;2.85;;
49488;SDS011;35382;51.484;11.476;2023-04-25T09:55:08;11.07;;;2.33;;
49488;SDS011;35382;51.484;11.476;2023-04-25T09:56:51;9.50;;;2.83;;
49488;SDS011;35382;51.484;11.476;2023-04-25T09:58:35;11.07;;;3.22;;
49488;SDS011;35382;51.484;11.476;2023-04-25T10:00:19;14.18;;;3.72;;
49488;SDS011;35382;51.484;11.476;2023-04-25T10:02:08;12.05;;;2.92;;
49488;SDS011;35382;51.484;11.476;2023-04-25T10:03:52;12.05;;;2.70;;
49488;SDS011;35382;51.484;11.476;2023-04-25T10:05:57;11.07;;;3.28;;
49488;SDS011;35382;51.484;11.476;2023-04-25T10:07:42;12.63;;;2.65;;
49488;SDS011;35382;51.484;11.476;2023-04-25T10:09:28;12.65;;;3.00;;
49488;SDS011;35382;51.484;11.476;2023-04-25T10:11:12;9.20;;;2.58;;
49488;SDS011;35382;51.484;11.476;2023-04-25T10:12:59;12.50;;;3.20;;
49488;SDS011;35382;51.484;11.476;2023-04-25T10:14:40;8.05;;;2.70;;